createdAt,value
2022-08-25T00:00:21.891Z,16.08
2022-08-25T00:02:56.036Z,16.02
2022-08-25T00:05:32.218Z,16.35
2022-08-25T00:08:02.311Z,18.02
2022-08-25T00:10:31.445Z,14.90
2022-08-25T00:13:00.121Z,19.17
2022-08-25T00:15:29.312Z,16.38
2022-08-25T00:17:58.405Z,15.48
2022-08-25T00:20:28.190Z,18.05
2022-08-25T00:22:58.560Z,17.85
2022-08-25T00:25:27.693Z,15.55
2022-08-25T00:27:57.343Z,17.02
2022-08-25T00:30:25.951Z,15.43
2022-08-25T00:32:57.035Z,16.02
2022-08-25T00:35:27.407Z,13.23
2022-08-25T00:37:57.393Z,21.33
2022-08-25T00:40:27.598Z,17.25
2022-08-25T00:42:56.303Z,16.60
2022-08-25T00:45:25.526Z,14.90
2022-08-25T00:47:54.557Z,16.55
2022-08-25T00:50:27.128Z,18.00
2022-08-25T00:53:01.736Z,18.00
2022-08-25T00:55:35.699Z,19.23
2022-08-25T00:58:11.640Z,15.02
2022-08-25T01:00:43.559Z,16.70
2022-08-25T01:03:13.746Z,19.10
2022-08-25T01:05:44.555Z,15.18
2022-08-25T01:08:16.297Z,18.60
2022-08-25T01:10:46.148Z,16.65
2022-08-25T01:13:20.238Z,15.07
2022-08-25T01:18:18.265Z,18.05
2022-08-25T01:20:50.980Z,21.15
2022-08-25T01:23:20.149Z,15.65
2022-08-25T01:25:54.370Z,17.45
2022-08-25T01:28:22.991Z,14.75
2022-08-25T01:30:52.566Z,14.63
2022-08-25T01:33:21.565Z,18.27
2022-08-25T01:35:51.496Z,16.98
2022-08-25T01:38:20.999Z,16.70
2022-08-25T01:40:51.927Z,17.45
2022-08-25T01:43:31.701Z,17.25
2022-08-25T01:46:00.353Z,19.60
2022-08-25T01:48:29.038Z,16.92
2022-08-25T01:50:58.949Z,18.33
2022-08-25T01:53:29.707Z,20.80
2022-08-25T01:56:10.210Z,16.80
2022-08-25T01:58:41.741Z,18.33
2022-08-25T02:01:12.609Z,18.95
2022-08-25T02:03:44.639Z,15.40
2022-08-25T02:06:18.753Z,18.80
2022-08-25T02:08:51.373Z,15.30
2022-08-25T02:11:19.956Z,19.70
2022-08-25T02:13:48.631Z,19.58
2022-08-25T02:16:21.798Z,19.80
2022-08-25T02:18:50.906Z,18.50
2022-08-25T02:21:20.842Z,21.13
2022-08-25T02:23:49.519Z,17.05
2022-08-25T02:26:19.935Z,22.70
2022-08-25T02:28:49.350Z,22.23
2022-08-25T02:31:19.598Z,18.27
2022-08-25T02:33:48.243Z,19.65
2022-08-25T02:36:17.252Z,20.58
2022-08-25T02:38:47.352Z,20.42
2022-08-25T02:41:20.227Z,19.52
2022-08-25T02:43:50.370Z,18.63
2022-08-25T02:46:25.023Z,19.75
2022-08-25T02:48:54.249Z,19.00
2022-08-25T02:51:25.478Z,22.55
2022-08-25T02:53:56.343Z,19.50
2022-08-25T02:56:25.845Z,19.95
2022-08-25T02:58:54.478Z,22.35
2022-08-25T03:01:28.350Z,21.63
2022-08-25T03:03:58.735Z,19.48
2022-08-25T03:06:28.092Z,22.90
2022-08-25T03:08:58.345Z,20.45
2022-08-25T03:11:26.930Z,25.10
2022-08-25T03:13:56.489Z,22.67
2022-08-25T03:16:27.627Z,20.05
2022-08-25T03:18:57.457Z,17.98
2022-08-25T03:21:26.310Z,19.75
2022-08-25T03:23:54.896Z,17.23
2022-08-25T03:26:42.634Z,18.23
2022-08-25T03:29:11.762Z,17.77
2022-08-25T03:31:40.842Z,19.95
2022-08-25T03:34:09.546Z,21.20
2022-08-25T03:36:38.179Z,24.23
2022-08-25T03:39:08.570Z,19.73
2022-08-25T03:41:38.608Z,19.67
2022-08-25T03:44:09.176Z,20.20
2022-08-25T03:46:41.977Z,21.42
2022-08-25T03:49:13.010Z,23.50
2022-08-25T03:51:45.553Z,21.23
2022-08-25T03:54:18.442Z,22.20
2022-08-25T03:56:48.434Z,19.60
2022-08-25T03:59:17.465Z,17.17
2022-08-25T04:01:51.350Z,19.30
2022-08-25T04:04:22.980Z,21.83
2022-08-25T04:06:53.025Z,19.60
2022-08-25T04:09:21.822Z,20.98
2022-08-25T04:11:53.366Z,22.20
2022-08-25T04:14:23.697Z,20.80
2022-08-25T04:16:53.103Z,26.83
2022-08-25T04:19:22.676Z,21.15
2022-08-25T04:21:51.719Z,23.20
2022-08-25T04:26:55.107Z,19.85
2022-08-25T04:29:25.555Z,21.58
2022-08-25T04:31:55.937Z,23.33
2022-08-25T04:34:30.176Z,22.30
2022-08-25T04:37:02.959Z,23.90
2022-08-25T04:39:32.082Z,23.33
2022-08-25T04:42:02.379Z,27.33
2022-08-25T04:44:32.022Z,24.02
2022-08-25T04:47:01.344Z,26.67
2022-08-25T04:49:30.039Z,28.27
2022-08-25T04:51:58.702Z,27.70
2022-08-25T04:54:28.240Z,27.27
2022-08-25T04:56:58.356Z,27.42
2022-08-25T04:59:30.728Z,27.38
2022-08-25T05:02:02.444Z,27.30
2022-08-25T05:04:32.798Z,26.05
2022-08-25T05:07:01.986Z,28.50
2022-08-25T05:09:32.508Z,27.60
2022-08-25T05:12:02.802Z,28.88
2022-08-25T05:14:33.930Z,33.28
2022-08-25T05:17:02.995Z,25.92
2022-08-25T05:19:31.739Z,23.40
2022-08-25T05:22:00.303Z,25.50
2022-08-25T05:24:29.702Z,28.00
2022-08-25T05:26:58.634Z,26.98
2022-08-25T05:29:27.407Z,24.25
2022-08-25T05:31:57.472Z,28.25
2022-08-25T05:34:26.100Z,26.95
2022-08-25T05:36:54.870Z,26.38
2022-08-25T05:39:23.913Z,25.70
2022-08-25T05:41:55.671Z,25.42
2022-08-25T05:44:24.297Z,28.90
2022-08-25T05:46:52.848Z,29.10
2022-08-25T05:49:22.838Z,30.02
2022-08-25T05:51:51.420Z,30.40
2022-08-25T05:54:19.997Z,32.55
2022-08-25T05:56:48.524Z,33.67
2022-08-25T05:59:17.102Z,29.25
2022-08-25T06:02:02.858Z,31.38
2022-08-25T06:04:33.699Z,31.27
2022-08-25T06:07:02.280Z,25.55
2022-08-25T06:09:30.915Z,28.35
2022-08-25T06:11:59.501Z,30.25
2022-08-25T06:14:28.014Z,28.02
2022-08-25T06:16:57.008Z,33.30
2022-08-25T06:19:25.633Z,34.47
2022-08-25T06:21:59.214Z,33.22
2022-08-25T06:24:29.605Z,31.42
2022-08-25T06:26:58.946Z,31.70
2022-08-25T06:29:27.786Z,34.38
2022-08-25T06:31:56.554Z,34.80
2022-08-25T06:34:25.400Z,36.13
2022-08-25T06:36:53.982Z,33.60
2022-08-25T06:39:24.698Z,33.58
2022-08-25T06:41:54.032Z,33.83
2022-08-25T06:44:23.785Z,37.28
2022-08-25T06:46:52.452Z,32.28
2022-08-25T06:49:21.404Z,37.08
2022-08-25T06:51:50.636Z,35.20
2022-08-25T06:54:19.309Z,32.83
2022-08-25T06:56:49.641Z,30.45
2022-08-25T06:59:19.041Z,36.47
2022-08-25T07:01:49.587Z,36.30
2022-08-25T07:04:18.843Z,31.42
2022-08-25T07:06:47.545Z,38.95
2022-08-25T07:09:16.428Z,37.28
2022-08-25T07:11:45.827Z,33.80
2022-08-25T07:14:18.195Z,33.50
2022-08-25T07:16:50.361Z,35.90
2022-08-25T07:19:21.510Z,32.30
2022-08-25T07:21:53.145Z,34.03
2022-08-25T07:24:22.780Z,32.80
2022-08-25T07:26:52.086Z,37.15
2022-08-25T07:29:32.214Z,36.17
2022-08-25T07:32:02.452Z,40.10
2022-08-25T07:34:51.923Z,38.25
2022-08-25T07:37:47.206Z,39.20
2022-08-25T07:40:14.160Z,39.30
2022-08-25T07:42:43.287Z,35.72
2022-08-25T07:45:15.569Z,37.10
2022-08-25T07:47:52.156Z,43.25
2022-08-25T07:50:21.655Z,45.10
2022-08-25T07:53:05.502Z,40.50
2022-08-25T07:55:36.604Z,39.88
2022-08-25T07:58:07.094Z,38.70
2022-08-25T08:00:39.663Z,41.75
2022-08-25T08:03:19.800Z,42.33
2022-08-25T08:06:00.246Z,35.97
2022-08-25T08:08:29.394Z,33.03
2022-08-25T08:11:05.037Z,37.33
2022-08-25T08:13:39.187Z,36.50
2022-08-25T08:16:13.130Z,36.42
2022-08-25T08:18:42.555Z,39.90
2022-08-25T08:21:13.897Z,34.22
2022-08-25T08:23:53.425Z,35.10
2022-08-25T08:26:36.246Z,36.90
2022-08-25T08:29:10.604Z,33.70
2022-08-25T08:31:40.903Z,39.72
2022-08-25T08:34:18.552Z,36.47
2022-08-25T08:36:47.153Z,35.85
2022-08-25T08:39:15.954Z,36.13
2022-08-25T08:42:18.433Z,33.63
2022-08-25T08:45:02.626Z,32.13
2022-08-25T08:47:45.501Z,34.63
2022-08-25T08:50:28.148Z,28.40
2022-08-25T08:53:07.627Z,30.13
2022-08-25T08:55:40.613Z,25.27
2022-08-25T08:58:14.160Z,28.88
2022-08-25T09:00:52.411Z,29.00
2022-08-25T09:03:32.907Z,28.02
2022-08-25T09:06:06.996Z,29.17
2022-08-25T09:08:36.351Z,25.55
2022-08-25T09:11:16.303Z,26.33
2022-08-25T09:14:04.462Z,27.95
2022-08-25T09:16:56.475Z,26.40
2022-08-25T09:19:48.797Z,23.48
2022-08-25T09:22:35.855Z,23.20
2022-08-25T09:25:18.792Z,25.23
2022-08-25T09:28:02.366Z,23.33
2022-08-25T09:30:35.448Z,20.90
2022-08-25T09:33:05.520Z,23.17
2022-08-25T09:35:40.784Z,25.13
2022-08-25T09:38:13.265Z,24.58
2022-08-25T09:40:44.389Z,21.38
2022-08-25T09:43:23.182Z,23.55
2022-08-25T09:46:00.770Z,19.95
2022-08-25T09:48:40.854Z,18.02
2022-08-25T09:51:19.533Z,20.85
2022-08-25T09:53:55.000Z,25.45
2022-08-25T09:56:26.290Z,18.02
2022-08-25T09:58:57.371Z,19.95
2022-08-25T10:01:34.718Z,21.02
2022-08-25T10:04:13.104Z,20.70
2022-08-25T10:06:50.977Z,19.55
2022-08-25T10:09:30.499Z,19.83
2022-08-25T10:12:04.932Z,21.35
2022-08-25T10:14:36.609Z,22.92
2022-08-25T10:17:24.779Z,26.42
2022-08-25T10:20:13.339Z,23.80
2022-08-25T10:22:45.307Z,25.55
2022-08-25T10:25:19.731Z,21.25
2022-08-25T10:28:11.023Z,21.65
2022-08-25T10:30:57.122Z,20.02
2022-08-25T10:33:36.369Z,20.55
2022-08-25T10:36:15.334Z,16.48
2022-08-25T10:38:56.341Z,16.67
2022-08-25T10:41:41.631Z,18.17
2022-08-25T10:44:39.940Z,19.33
2022-08-25T10:47:33.278Z,22.27
2022-08-25T10:52:44.437Z,19.05
2022-08-25T10:55:21.867Z,29.88
2022-08-25T10:57:59.397Z,22.35
2022-08-25T11:00:37.455Z,22.67
2022-08-25T11:03:38.141Z,16.90
2022-08-25T11:06:13.335Z,16.65
2022-08-25T11:08:47.992Z,18.45
2022-08-25T11:11:25.818Z,16.90
2022-08-25T11:13:58.913Z,17.83
2022-08-25T11:16:38.173Z,18.15
2022-08-25T11:19:15.382Z,93.80
2022-08-25T11:21:53.343Z,19.17
2022-08-25T11:24:33.436Z,19.17
2022-08-25T11:27:13.821Z,17.80
2022-08-25T11:29:47.203Z,16.23
2022-08-25T11:32:19.502Z,21.73
2022-08-25T11:34:48.265Z,17.42
2022-08-25T11:37:23.233Z,19.67
2022-08-25T11:40:15.678Z,35.38
2022-08-25T11:42:58.736Z,16.80
2022-08-25T11:45:55.809Z,15.45
2022-08-25T11:48:35.650Z,21.83
2022-08-25T11:51:07.575Z,24.27
2022-08-25T11:53:42.345Z,17.10
2022-08-25T11:56:12.979Z,22.42
2022-08-25T11:58:46.597Z,19.73
2022-08-25T12:04:15.111Z,19.70
2022-08-25T12:07:20.121Z,20.27
2022-08-25T12:10:18.725Z,19.77
2022-08-25T12:13:28.403Z,15.45
2022-08-25T12:16:02.546Z,16.33
2022-08-25T12:18:50.419Z,17.83
2022-08-25T12:21:34.063Z,18.50
2022-08-25T12:24:22.092Z,18.92
2022-08-25T12:26:57.253Z,17.67
2022-08-25T12:29:34.317Z,23.77
2022-08-25T12:32:21.939Z,19.05
2022-08-25T12:35:20.388Z,22.30
2022-08-25T12:38:11.610Z,20.08
2022-08-25T12:40:58.486Z,22.70
2022-08-25T12:43:37.849Z,19.13
2022-08-25T12:46:43.221Z,19.20
2022-08-25T12:49:35.833Z,18.58
2022-08-25T12:52:12.824Z,17.75
2022-08-25T12:54:49.153Z,22.10
2022-08-25T12:57:40.754Z,16.17
2022-08-25T13:00:18.599Z,21.60
2022-08-25T13:03:14.174Z,18.90
2022-08-25T13:06:06.922Z,27.23
2022-08-25T13:09:16.052Z,19.98
2022-08-25T13:11:51.107Z,18.10
2022-08-25T13:14:27.610Z,17.08
2022-08-25T13:16:58.028Z,18.73
2022-08-25T13:19:27.983Z,17.20
2022-08-25T13:22:16.330Z,18.55
2022-08-25T13:24:50.616Z,19.85
2022-08-25T13:27:25.158Z,18.88
2022-08-25T13:29:56.758Z,20.10
2022-08-25T13:32:34.327Z,14.30
2022-08-25T13:35:15.562Z,19.45
2022-08-25T13:37:47.832Z,18.55
2022-08-25T13:40:24.563Z,21.83
2022-08-25T13:42:57.609Z,23.13
2022-08-25T13:45:31.758Z,25.13
2022-08-25T13:48:00.830Z,19.88
2022-08-25T13:50:35.458Z,20.17
2022-08-25T13:53:08.711Z,17.73
2022-08-25T13:55:51.266Z,15.82
2022-08-25T13:58:24.396Z,21.88
2022-08-25T14:01:22.787Z,20.13
2022-08-25T14:04:19.822Z,21.52
2022-08-25T14:06:48.937Z,118.68
2022-08-25T14:09:27.922Z,93.55
2022-08-25T14:11:59.079Z,68.40
2022-08-25T14:14:35.095Z,52.30
2022-08-25T14:17:21.894Z,35.80
2022-08-25T14:19:56.656Z,20.05
2022-08-25T14:22:25.505Z,21.40
2022-08-25T14:24:56.255Z,30.15
2022-08-25T14:27:24.937Z,19.05
2022-08-25T14:29:53.956Z,23.83
2022-08-25T14:32:22.793Z,19.65
2022-08-25T14:34:51.430Z,16.20
2022-08-25T14:37:25.345Z,27.00
2022-08-25T14:39:55.420Z,20.65
2022-08-25T14:42:25.375Z,23.83
2022-08-25T14:44:55.116Z,19.15
2022-08-25T14:47:25.456Z,18.17
2022-08-25T14:49:57.372Z,18.40
2022-08-25T14:52:29.956Z,18.05
2022-08-25T14:54:59.989Z,30.00
2022-08-25T14:57:28.815Z,19.77
2022-08-25T14:59:58.165Z,20.95
2022-08-25T15:02:29.643Z,21.92
2022-08-25T15:05:02.258Z,20.02
2022-08-25T15:07:50.628Z,22.17
2022-08-25T15:10:21.717Z,19.80
2022-08-25T15:12:54.783Z,26.05
2022-08-25T15:15:26.444Z,17.33
2022-08-25T15:17:59.299Z,18.75
2022-08-25T15:20:29.706Z,20.30
2022-08-25T15:22:59.454Z,20.42
2022-08-25T15:25:31.316Z,19.38
2022-08-25T15:28:00.312Z,20.77
2022-08-25T15:30:30.807Z,18.98
2022-08-25T15:33:00.509Z,16.92
2022-08-25T15:35:29.830Z,18.83
2022-08-25T15:37:58.557Z,17.05
2022-08-25T15:40:27.340Z,19.05
2022-08-25T15:42:57.597Z,18.10
2022-08-25T15:45:27.363Z,16.52
2022-08-25T15:47:56.683Z,16.73
2022-08-25T15:50:26.916Z,18.40
2022-08-25T15:52:55.502Z,23.17
2022-08-25T15:55:24.064Z,20.52
2022-08-25T15:57:59.964Z,23.25
2022-08-25T16:00:28.684Z,18.70
2022-08-25T16:03:00.722Z,18.15
2022-08-25T16:05:30.099Z,19.83
2022-08-25T16:07:58.771Z,17.33
2022-08-25T16:10:27.933Z,20.33
2022-08-25T16:12:56.613Z,20.85
2022-08-25T16:15:28.842Z,32.90
2022-08-25T16:18:00.168Z,28.23
2022-08-25T16:20:28.894Z,24.77
2022-08-25T16:23:00.228Z,25.15
2022-08-25T16:25:28.909Z,24.13
2022-08-25T16:27:58.183Z,18.50
2022-08-25T16:30:28.494Z,23.70
2022-08-25T16:32:57.596Z,19.15
2022-08-25T16:35:26.141Z,21.52
2022-08-25T16:37:55.105Z,27.08
2022-08-25T16:40:26.435Z,18.73
2022-08-25T16:42:55.368Z,22.38
2022-08-25T16:45:24.372Z,30.73
2022-08-25T16:47:54.450Z,27.00
2022-08-25T16:50:23.445Z,20.13
2022-08-25T16:53:09.332Z,24.23
2022-08-25T16:55:39.127Z,24.17
2022-08-25T16:58:12.524Z,24.67
2022-08-25T17:00:43.979Z,26.05
2022-08-25T17:03:15.200Z,30.38
2022-08-25T17:05:44.611Z,31.02
2022-08-25T17:08:31.362Z,39.97
2022-08-25T17:11:10.005Z,28.52
2022-08-25T17:13:40.291Z,37.75
2022-08-25T17:16:14.904Z,38.38
2022-08-25T17:18:47.794Z,34.28
2022-08-25T17:21:23.884Z,23.85
2022-08-25T17:23:54.262Z,23.23
2022-08-25T17:26:27.686Z,24.52
2022-08-25T17:28:57.825Z,24.63
2022-08-25T17:31:29.959Z,25.02
2022-08-25T17:34:00.697Z,27.60
2022-08-25T17:36:29.792Z,33.33
2022-08-25T17:38:58.529Z,25.38
2022-08-25T17:41:27.539Z,23.38
2022-08-25T17:43:56.106Z,22.85
2022-08-25T17:46:25.255Z,51.22
2022-08-25T17:48:54.732Z,71.57
2022-08-25T17:51:24.971Z,89.57
2022-08-25T17:53:57.390Z,56.83
2022-08-25T17:56:28.068Z,48.28
2022-08-25T17:58:57.709Z,30.17
2022-08-25T18:01:29.153Z,32.75
2022-08-25T18:04:01.200Z,33.20
2022-08-25T18:06:31.661Z,26.08
2022-08-25T18:09:01.513Z,27.58
2022-08-25T18:11:31.647Z,22.80
2022-08-25T18:14:00.764Z,30.42
2022-08-25T18:16:29.526Z,31.13
2022-08-25T18:18:58.154Z,29.30
2022-08-25T18:21:30.261Z,27.25
2022-08-25T18:24:01.750Z,23.63
2022-08-25T18:26:30.646Z,24.77
2022-08-25T18:29:00.652Z,24.27
2022-08-25T18:31:29.588Z,28.98
2022-08-25T18:33:59.180Z,26.33
2022-08-25T18:36:27.871Z,24.08
2022-08-25T18:39:25.908Z,26.48
2022-08-25T18:41:55.926Z,28.50
2022-08-25T18:44:24.549Z,31.85
2022-08-25T18:46:54.165Z,34.65
2022-08-25T18:49:23.113Z,22.85
2022-08-25T18:51:57.480Z,25.65
2022-08-25T18:54:26.053Z,29.15
2022-08-25T18:56:56.564Z,26.00
2022-08-25T18:59:25.280Z,21.45
2022-08-25T19:01:54.719Z,25.75
2022-08-25T19:04:28.686Z,24.60
2022-08-25T19:07:01.876Z,22.92
2022-08-25T19:09:32.100Z,23.13
2022-08-25T19:12:02.271Z,22.65
2022-08-25T19:14:30.893Z,21.52
2022-08-25T19:16:59.534Z,24.90
2022-08-25T19:19:29.840Z,25.52
2022-08-25T19:21:59.324Z,20.70
2022-08-25T19:24:29.847Z,28.48
2022-08-25T19:27:02.328Z,27.60
2022-08-25T19:29:32.651Z,19.02
2022-08-25T19:32:02.028Z,25.55
2022-08-25T19:34:34.985Z,28.38
2022-08-25T19:37:06.190Z,23.93
2022-08-25T19:39:39.584Z,25.73
2022-08-25T19:42:08.877Z,23.27
2022-08-25T19:44:59.610Z,24.30
2022-08-25T19:47:29.798Z,24.25
2022-08-25T19:50:00.490Z,25.08
2022-08-25T19:52:29.085Z,27.17
2022-08-25T19:54:58.793Z,26.02
2022-08-25T19:57:42.405Z,24.95
2022-08-25T20:00:17.394Z,24.67
2022-08-25T20:02:47.272Z,28.15
2022-08-25T20:05:23.715Z,23.95
2022-08-25T20:07:53.885Z,27.92
2022-08-25T20:10:23.973Z,25.52
2022-08-25T20:12:53.357Z,26.95
2022-08-25T20:15:24.025Z,26.63
2022-08-25T20:17:56.660Z,29.95
2022-08-25T20:20:25.426Z,26.70
2022-08-25T20:23:15.037Z,28.55
2022-08-25T20:25:44.204Z,29.08
2022-08-25T20:28:18.982Z,35.53
2022-08-25T20:30:49.265Z,28.90
2022-08-25T20:33:22.561Z,29.00
2022-08-25T20:38:21.852Z,32.05
2022-08-25T20:40:50.448Z,36.22
2022-08-25T20:43:20.838Z,39.30
2022-08-25T20:45:51.013Z,34.33
2022-08-25T20:48:19.631Z,30.40
2022-08-25T20:50:57.460Z,37.28
2022-08-25T20:53:27.121Z,27.92
2022-08-25T20:55:55.681Z,33.35
2022-08-25T20:58:24.504Z,32.92
2022-08-25T21:00:56.503Z,33.05
2022-08-25T21:03:25.357Z,27.45
2022-08-25T21:05:54.357Z,29.60
2022-08-25T21:08:23.806Z,31.90
2022-08-25T21:10:53.980Z,28.65
2022-08-25T21:13:22.781Z,28.83
2022-08-25T21:15:51.584Z,29.00
2022-08-25T21:18:21.830Z,31.75
2022-08-25T21:20:50.415Z,28.08
2022-08-25T21:23:21.150Z,28.88
2022-08-25T21:25:49.801Z,29.50
2022-08-25T21:28:18.559Z,28.25
2022-08-25T21:30:49.708Z,28.45
2022-08-25T21:33:18.854Z,26.88
2022-08-25T21:35:48.797Z,27.67
2022-08-25T21:38:17.725Z,26.02
2022-08-25T21:40:46.498Z,30.10
2022-08-25T21:43:18.601Z,26.17
2022-08-25T21:45:47.386Z,33.55
2022-08-25T21:48:16.341Z,86.80
2022-08-25T21:50:45.244Z,30.17
2022-08-25T21:53:15.206Z,29.33
2022-08-25T21:55:44.454Z,28.88
2022-08-25T21:58:13.076Z,27.85
2022-08-25T22:00:42.927Z,26.02
2022-08-25T22:03:11.859Z,27.52
2022-08-25T22:05:40.699Z,29.77
2022-08-25T22:08:11.982Z,29.58
2022-08-25T22:10:45.939Z,29.20
2022-08-25T22:13:15.971Z,23.73
2022-08-25T22:15:46.920Z,26.10
2022-08-25T22:20:50.587Z,20.25
2022-08-25T22:23:20.366Z,24.52
2022-08-25T22:25:51.729Z,21.08
2022-08-25T22:28:21.569Z,27.20
2022-08-25T22:30:50.731Z,25.92
2022-08-25T22:33:19.871Z,21.35
2022-08-25T22:35:51.234Z,22.38
2022-08-25T22:38:24.315Z,20.55
2022-08-25T22:40:54.456Z,24.50
2022-08-25T22:43:23.669Z,27.30
2022-08-25T22:46:01.499Z,21.85
2022-08-25T22:48:30.899Z,19.70
2022-08-25T22:51:05.105Z,23.73
2022-08-25T22:53:36.168Z,22.73
2022-08-25T22:56:08.190Z,22.83
2022-08-25T22:58:37.140Z,23.67
2022-08-25T23:01:13.887Z,23.10
2022-08-25T23:03:44.937Z,28.98
2022-08-25T23:06:24.761Z,22.65
2022-08-25T23:08:55.000Z,22.52
2022-08-25T23:11:26.239Z,22.15
2022-08-25T23:14:00.429Z,23.02
2022-08-25T23:16:31.750Z,24.40
2022-08-25T23:19:00.556Z,25.77
2022-08-25T23:21:47.294Z,21.58
2022-08-25T23:24:29.382Z,23.65
2022-08-25T23:27:03.901Z,23.50
2022-08-25T23:29:34.332Z,21.45
2022-08-25T23:32:03.497Z,22.65
2022-08-25T23:34:33.766Z,23.75
2022-08-25T23:37:03.146Z,23.55
2022-08-25T23:39:32.057Z,27.17
2022-08-25T23:42:02.201Z,23.08
2022-08-25T23:44:32.381Z,23.42
2022-08-25T23:47:00.992Z,19.67
2022-08-25T23:49:29.890Z,22.48
2022-08-25T23:51:58.547Z,20.05
2022-08-25T23:54:30.805Z,23.88
2022-08-25T23:57:01.778Z,25.40
2022-08-25T23:59:30.565Z,22.65
